Hopa, Turkey

10:12 AM EET on February 08, 2016 (GMT +0200)
Batumi | | Change Station
CLOSE
Current Station
Airport
Location: Batumi,
Elevation: 105 ft
Nearby Weather Stations

Elev 105 ft 41.63 °N, 41.60 °E | Updated 12 minutes ago

Light Rain Showers
Light Showers Rain
43 °F
Feels Like 37 °F
N
10
Wind Variable Wind from SW

Today
High -- | Low -- °F
--% Chance of Precip.
Yesterday
High -- | Low -- °F
Precip. -- in
Pressure 30.48 in
Visibility 6.2 miles
Clouds Scattered Clouds 1800 ft
Mostly Cloudy 3000 ft
Windchill 37 °F
Dew Point 37 °F
Humidity 81%
Rainfall 0.00 in
Snow Depth Not available.
6:19 AM 4:38 PM
Waning Crescent, 0% visible
METAR UGSB 080800Z 22009KT 9999 -SHRA SCT018CB BKN030 06/03 Q1032 R13/29//55 NOSIG
Pressure 30.48 in
Visibility 6.2 miles
Clouds Scattered Clouds 1800 ft
Mostly Cloudy 3000 ft
Windchill 37 °F
Dew Point 37 °F
Humidity 81%
Rainfall 0.00 in
Snow Depth Not available.
6:19 AM 4:38 PM
Waning Crescent, 0% visible
METAR UGSB 080800Z 22009KT 9999 -SHRA SCT018CB BKN030 06/03 Q1032 R13/29//55 NOSIG

10-Day Weather Forecast

Almanac

Astronomy

Feb. 08, 2016 Rise Set
Actual Time
Civil Twilight
Nautical Twilight
Astronomical Twilight
Moon
Length of Visible Light
Length of Day
Tomorrow will be .
, % of the Moon is Illuminated

Today's Extremes

Country Highs Country Lows

Community

WunderPhotos

Upload Photos

1,891,412 photos uploaded!

WunderBlog® & News

Nearby

Air Quality

  Air Quality AQ Index Pollutant
Not available.

Snow Depth

Station Depth Elevation

Earthquake Activity

City Distance Mag. Time & Date
Minimum magnitude displayed is 2.5.

Coastal Water Temperatures

Place Temperature

Stations

Nearby Weather Stations

Station Location Temp. Windchill Dew Point Humidity Wind Precip. Elev Updated Type